Time;durP1;ratioP1;P1;durP2;ratioP2;P2;SDS_P1;SDS_P2;PMS_P1;PMS_P2;Temp;Humidity;BMP_temperature;BMP_pressure;BME280_temperature;BME280_humidity;BME280_pressure;Samples;Min_cycle;Max_cycle;Signal;HPM_P1;HPM_P2
2023/04/10 00:02:33;;;;;;;5.47;3.20;;;;;;;;;;10149611;28;20053;-64
2023/04/10 00:07:27;;;;;;;4.85;2.72;;;;;;;;;;10150323;28;20076;-64
2023/04/10 00:12:20;;;;;;;3.90;3.30;;;;;;;;;;10151930;28;20501;-64
2023/04/10 00:17:12;;;;;;;3.42;2.65;;;;;;;;;;10149672;28;20128;-64
2023/04/10 00:22:05;;;;;;;5.53;3.30;;;;;;;;;;10149625;28;20052;-63
2023/04/10 00:27:00;;;;;;;8.48;4.43;;;;;;;;;;10146869;28;20127;-63
2023/04/10 00:31:54;;;;;;;6.85;2.90;;;;;;;;;;10148517;28;20079;-64
2023/04/10 00:36:47;;;;;;;3.33;2.63;;;;;;;;;;10147382;28;20057;-64
2023/04/10 00:41:40;;;;;;;4.15;2.75;;;;;;;;;;10148093;28;20052;-64
2023/04/10 00:46:34;;;;;;;5.43;2.90;;;;;;;;;;10148190;28;20063;-63
2023/04/10 00:51:27;;;;;;;3.97;3.58;;;;;;;;;;10124853;28;20044;-63
2023/04/10 00:56:20;;;;;;;3.40;3.10;;;;;;;;;;10129678;28;20056;-63
2023/04/10 01:01:13;;;;;;;4.57;3.25;;;;;;;;;;10126680;28;20144;-63
2023/04/10 01:06:27;;;;;;;3.00;2.60;;;;;;;;;;10137465;28;20048;-64
2023/04/10 01:11:20;;;;;;;5.80;3.40;;;;;;;;;;10143195;28;20059;-64
2023/04/10 01:16:26;;;;;;;4.43;3.80;;;;;;;;;;10147218;28;20469;-64
2023/04/10 01:21:19;;;;;;;5.05;4.15;;;;;;;;;;10146801;28;20066;-64
2023/04/10 01:26:14;;;;;;;6.35;4.55;;;;;;;;;;10105126;28;20048;-64
2023/04/10 01:31:16;;;;;;;6.22;5.00;;;;;;;;;;10128767;28;20513;-64
2023/04/10 01:36:09;;;;;;;5.03;4.53;;;;;;;;;;10112031;28;20131;-64
2023/04/10 01:41:03;;;;;;;6.35;4.63;;;;;;;;;;10128172;28;20526;-64
2023/04/10 01:45:57;;;;;;;5.53;5.03;;;;;;;;;;10127705;28;20036;-64
2023/04/10 01:50:51;;;;;;;6.32;5.80;;;;;;;;;;10127911;28;20064;-64
2023/04/10 01:55:45;;;;;;;8.23;5.60;;;;;;;;;;10144724;28;20141;-64
2023/04/10 02:00:40;;;;;;;7.05;5.57;;;;;;;;;;10128228;28;20098;-64
2023/04/10 02:05:58;;;;;;;6.97;5.45;;;;;;;;;;10127984;28;20140;-64
2023/04/10 02:10:55;;;;;;;6.63;5.95;;;;;;;;;;10112797;28;20053;-64
2023/04/10 02:15:50;;;;;;;5.65;5.15;;;;;;;;;;10127651;28;20460;-64
2023/04/10 02:20:43;;;;;;;6.95;5.82;;;;;;;;;;10111152;28;20055;-64
2023/04/10 02:25:37;;;;;;;7.18;5.40;;;;;;;;;;10089717;28;20054;-64
2023/04/10 02:30:30;;;;;;;6.22;5.57;;;;;;;;;;10101241;28;20464;-64
2023/04/10 02:35:23;;;;;;;7.63;5.55;;;;;;;;;;10127474;28;20053;-64
2023/04/10 02:40:16;;;;;;;5.35;4.85;;;;;;;;;;10126046;28;20106;-64
2023/04/10 02:45:17;;;;;;;7.05;5.03;;;;;;;;;;10126625;28;20048;-64
2023/04/10 02:50:10;;;;;;;5.10;4.63;;;;;;;;;;10144284;28;20599;-63
2023/04/10 02:55:06;;;;;;;5.97;5.38;;;;;;;;;;10115163;28;20063;-64
2023/04/10 03:00:03;;;;;;;5.40;4.43;;;;;;;;;;10129501;28;20094;-64
2023/04/10 03:05:16;;;;;;;5.82;5.00;;;;;;;;;;10149334;28;20073;-64
2023/04/10 03:10:09;;;;;;;5.35;4.85;;;;;;;;;;10133621;28;20055;-64
2023/04/10 03:15:04;;;;;;;4.00;3.60;;;;;;;;;;10151573;28;20497;-63
2023/04/10 03:19:56;;;;;;;6.18;4.50;;;;;;;;;;10133681;28;20049;-64
2023/04/10 03:24:51;;;;;;;4.57;4.13;;;;;;;;;;10130670;28;20043;-63
2023/04/10 03:29:45;;;;;;;6.63;4.28;;;;;;;;;;10131055;28;20049;-64
2023/04/10 03:34:39;;;;;;;4.55;4.13;;;;;;;;;;10152002;28;20048;-63
2023/04/10 03:39:33;;;;;;;8.27;3.97;;;;;;;;;;10145525;28;20041;-64
2023/04/10 03:44:26;;;;;;;4.68;4.05;;;;;;;;;;10133383;28;20056;-64
2023/04/10 03:49:19;;;;;;;4.68;3.70;;;;;;;;;;10150895;28;20052;-63
2023/04/10 03:54:12;;;;;;;3.80;3.40;;;;;;;;;;10131900;28;20114;-63
2023/04/10 03:59:06;;;;;;;4.93;3.40;;;;;;;;;;10126389;28;20055;-64
2023/04/10 04:04:04;;;;;;;5.27;3.67;;;;;;;;;;10132723;28;20056;-64
2023/04/10 04:09:16;;;;;;;4.65;4.00;;;;;;;;;;10148586;28;20516;-63
2023/04/10 04:14:22;;;;;;;5.82;4.07;;;;;;;;;;10149666;28;20060;-64
2023/04/10 04:19:26;;;;;;;4.97;3.35;;;;;;;;;;10149534;28;20040;-63
2023/04/10 04:24:43;;;;;;;4.05;3.65;;;;;;;;;;10116043;28;20067;-64
2023/04/10 04:29:42;;;;;;;4.57;4.10;;;;;;;;;;10128537;28;20135;-63
2023/04/10 04:34:41;;;;;;;4.28;3.83;;;;;;;;;;10131763;28;20501;-63
2023/04/10 04:39:53;;;;;;;4.65;3.67;;;;;;;;;;10148269;28;20432;-64
2023/04/10 04:44:49;;;;;;;8.70;4.13;;;;;;;;;;10148316;28;20040;-64
2023/04/10 04:49:41;;;;;;;7.47;4.82;;;;;;;;;;10148175;28;20416;-64
2023/04/10 04:54:51;;;;;;;5.13;4.43;;;;;;;;;;10128129;28;20052;-64
2023/04/10 04:59:58;;;;;;;5.20;4.70;;;;;;;;;;10130695;28;20048;-64
2023/04/10 05:05:17;;;;;;;6.72;4.85;;;;;;;;;;10121129;28;20064;-63
2023/04/10 05:10:33;;;;;;;6.85;5.10;;;;;;;;;;10146794;28;20102;-64
2023/04/10 05:15:44;;;;;;;6.43;5.15;;;;;;;;;;10146228;28;20059;-64
2023/04/10 05:20:46;;;;;;;6.55;5.85;;;;;;;;;;10123714;28;20044;-64
2023/04/10 05:26:09;;;;;;;5.95;5.35;;;;;;;;;;10070926;28;20154;-64
2023/04/10 05:31:20;;;;;;;6.15;5.00;;;;;;;;;;10128033;28;20048;-62
2023/04/10 05:36:25;;;;;;;6.88;4.72;;;;;;;;;;10128369;28;20477;-62
2023/04/10 05:41:38;;;;;;;8.68;5.10;;;;;;;;;;10121301;28;20064;-62
2023/04/10 05:46:54;;;;;;;11.77;4.90;;;;;;;;;;10115733;28;20084;-62
2023/04/10 05:51:49;;;;;;;6.13;4.68;;;;;;;;;;10135250;28;20080;-62
2023/04/10 05:57:02;;;;;;;5.47;4.97;;;;;;;;;;10042566;28;20075;-62
2023/04/10 06:02:01;;;;;;;;;;;;;;;;;;10136472;28;20052;-62
2023/04/10 06:06:55;;;;;;;5.45;4.88;;;;;;;;;;10128048;28;19959;-62
2023/04/10 06:11:48;;;;;;;6.35;5.75;;;;;;;;;;10113637;28;20041;-62
2023/04/10 06:16:46;;;;;;;6.65;4.97;;;;;;;;;;10129946;28;20147;-62
2023/04/10 06:21:40;;;;;;;5.65;4.78;;;;;;;;;;10119545;28;20567;-65
2023/04/10 06:26:32;;;;;;;5.75;5.15;;;;;;;;;;10102837;28;20048;-67
2023/04/10 06:31:28;;;;;;;5.22;4.70;;;;;;;;;;10113870;28;20061;-66
2023/04/10 06:36:21;;;;;;;5.82;5.18;;;;;;;;;;10125577;28;20580;-68
2023/04/10 06:41:21;;;;;;;9.05;6.68;;;;;;;;;;10135095;28;20044;-68
2023/04/10 06:46:19;;;;;;;10.80;5.90;;;;;;;;;;10150063;28;20068;-66
2023/04/10 06:51:13;;;;;;;6.30;5.68;;;;;;;;;;10149672;28;20102;-67
2023/04/10 06:56:06;;;;;;;7.03;5.28;;;;;;;;;;10133289;28;21744;-66
2023/04/10 07:01:03;;;;;;;9.07;5.68;;;;;;;;;;10147257;28;20117;-67
2023/04/10 07:05:57;;;;;;;6.63;5.20;;;;;;;;;;10150313;28;20051;-67
2023/04/10 07:10:51;;;;;;;11.52;5.25;;;;;;;;;;10148382;28;20052;-68
2023/04/10 07:15:45;;;;;;;8.25;5.57;;;;;;;;;;10147967;28;20071;-66
2023/04/10 07:20:37;;;;;;;5.38;4.65;;;;;;;;;;10150867;28;20137;-65
2023/04/10 07:25:31;;;;;;;11.18;4.95;;;;;;;;;;10145846;28;20057;-66
2023/04/10 07:30:25;;;;;;;5.28;4.00;;;;;;;;;;10149835;28;20049;-66
2023/04/10 07:35:19;;;;;;;4.45;4.03;;;;;;;;;;10150003;28;20110;-68
2023/04/10 07:40:13;;;;;;;3.40;2.80;;;;;;;;;;10153510;28;20515;-68
2023/04/10 07:45:08;;;;;;;4.35;3.03;;;;;;;;;;10148499;28;20040;-68
2023/04/10 07:50:01;;;;;;;4.10;3.15;;;;;;;;;;10150502;28;20110;-68
2023/04/10 07:54:55;;;;;;;6.72;3.60;;;;;;;;;;10146114;28;20056;-68
2023/04/10 07:59:48;;;;;;;4.15;3.75;;;;;;;;;;10131003;28;20131;-68
2023/04/10 08:04:41;;;;;;;3.63;3.10;;;;;;;;;;10128395;28;20040;-68
2023/04/10 08:09:35;;;;;;;5.07;4.45;;;;;;;;;;10145102;28;20405;-68
2023/04/10 08:14:29;;;;;;;3.20;2.90;;;;;;;;;;10129422;28;20048;-68
2023/04/10 08:19:22;;;;;;;2.78;2.50;;;;;;;;;;10138581;28;20252;-68
2023/04/10 08:24:18;;;;;;;2.45;2.25;;;;;;;;;;10138189;28;20082;-68
2023/04/10 08:29:12;;;;;;;6.93;2.58;;;;;;;;;;10138500;28;20132;-68
2023/04/10 08:34:06;;;;;;;2.55;2.35;;;;;;;;;;10140249;28;20040;-68
2023/04/10 08:39:00;;;;;;;2.60;2.40;;;;;;;;;;10137702;28;20568;-68
2023/04/10 08:43:53;;;;;;;6.03;3.53;;;;;;;;;;10133170;28;20534;-68
2023/04/10 08:48:59;;;;;;;3.38;2.63;;;;;;;;;;10129182;28;20052;-68
2023/04/10 08:53:55;;;;;;;5.00;2.72;;;;;;;;;;10143282;28;20057;-68
2023/04/10 08:58:51;;;;;;;3.03;2.50;;;;;;;;;;10141508;28;20106;-69
2023/04/10 09:03:46;;;;;;;3.20;2.90;;;;;;;;;;10151947;28;20085;-69
2023/04/10 09:08:40;;;;;;;4.85;3.20;;;;;;;;;;10142228;28;20060;-69
2023/04/10 09:13:42;;;;;;;5.10;2.60;;;;;;;;;;10143495;28;20056;-69
2023/04/10 09:18:44;;;;;;;3.63;2.90;;;;;;;;;;10130089;28;20143;-68
2023/04/10 09:23:37;;;;;;;2.97;2.67;;;;;;;;;;10141653;28;20052;-68
2023/04/10 09:28:31;;;;;;;3.28;2.20;;;;;;;;;;10141171;28;20513;-69
2023/04/10 09:33:26;;;;;;;3.05;2.15;;;;;;;;;;10123111;28;20056;-69
2023/04/10 09:38:21;;;;;;;2.65;2.40;;;;;;;;;;10140906;28;20417;-69
2023/04/10 09:43:17;;;;;;;2.30;2.10;;;;;;;;;;10140786;28;20063;-68
2023/04/10 09:48:10;;;;;;;2.35;2.15;;;;;;;;;;10139980;28;20091;-69
2023/04/10 09:53:04;;;;;;;5.30;2.45;;;;;;;;;;10140253;28;20080;-69
2023/04/10 09:57:58;;;;;;;7.00;3.85;;;;;;;;;;10139849;28;20052;-69
2023/04/10 10:02:51;;;;;;;3.50;3.20;;;;;;;;;;10139186;28;20455;-69
2023/04/10 10:07:46;;;;;;;3.53;2.45;;;;;;;;;;10139845;28;20505;-69
2023/04/10 10:12:45;;;;;;;2.55;2.35;;;;;;;;;;10140619;28;20076;-66
2023/04/10 10:17:42;;;;;;;2.90;2.50;;;;;;;;;;10121916;28;20490;-66
2023/04/10 10:22:37;;;;;;;3.35;2.97;;;;;;;;;;10139357;28;20076;-66
2023/04/10 10:27:49;;;;;;;6.78;3.13;;;;;;;;;;10140157;28;20128;-66
2023/04/10 10:32:46;;;;;;;4.40;2.78;;;;;;;;;;10119157;28;20057;-68
2023/04/10 10:37:41;;;;;;;3.80;3.35;;;;;;;;;;10139509;28;20471;-66
2023/04/10 10:42:53;;;;;;;2.90;2.63;;;;;;;;;;10139469;28;20052;-66
2023/04/10 10:48:07;;;;;;;4.35;3.53;;;;;;;;;;10138947;28;20114;-66
2023/04/10 10:53:00;;;;;;;3.50;3.00;;;;;;;;;;10135431;28;20540;-66
2023/04/10 10:57:59;;;;;;;4.35;3.40;;;;;;;;;;10139316;28;20573;-65
2023/04/10 11:03:07;;;;;;;3.10;2.80;;;;;;;;;;10139653;28;20433;-67
2023/04/10 11:08:00;;;;;;;5.13;4.07;;;;;;;;;;10139141;28;20122;-66
2023/04/10 11:13:16;;;;;;;5.28;3.05;;;;;;;;;;10139091;28;20059;-67
2023/04/10 11:18:10;;;;;;;2.55;2.35;;;;;;;;;;10122210;28;20044;-67
2023/04/10 11:23:11;;;;;;;3.20;2.47;;;;;;;;;;10144822;28;20515;-67
2023/04/10 11:28:04;;;;;;;5.50;3.97;;;;;;;;;;10138843;28;20097;-68
2023/04/10 11:32:59;;;;;;;3.08;2.78;;;;;;;;;;10129184;28;20106;-67
2023/04/10 11:38:06;;;;;;;2.97;2.67;;;;;;;;;;10144841;28;20048;-67
2023/04/10 11:43:17;;;;;;;3.92;2.95;;;;;;;;;;10139680;28;20624;-66
2023/04/10 11:48:12;;;;;;;3.92;3.13;;;;;;;;;;10134014;28;20428;-66
2023/04/10 11:53:38;;;;;;;5.32;3.53;;;;;;;;;;10124566;28;20871;-66
2023/04/10 11:58:31;;;;;;;4.50;2.30;;;;;;;;;;10143613;28;20048;-67
2023/04/10 12:03:51;;;;;;;4.57;2.75;;;;;;;;;;10141871;28;20045;-66
2023/04/10 12:08:49;;;;;;;3.88;2.90;;;;;;;;;;10110428;28;20052;-67
2023/04/10 12:13:43;;;;;;;2.42;2.22;;;;;;;;;;10146440;28;20598;-67
2023/04/10 12:18:37;;;;;;;6.50;2.58;;;;;;;;;;10131771;28;20045;-65
2023/04/10 12:23:31;;;;;;;3.38;2.83;;;;;;;;;;10127052;28;20056;-65
2023/04/10 12:28:24;;;;;;;2.45;2.25;;;;;;;;;;10130060;28;20458;-65
2023/04/10 12:33:25;;;;;;;4.43;2.53;;;;;;;;;;10132629;28;20056;-65
2023/04/10 12:38:38;;;;;;;2.85;2.28;;;;;;;;;;10130850;28;20049;-65
2023/04/10 12:43:34;;;;;;;4.95;3.17;;;;;;;;;;10123923;28;20107;-66
2023/04/10 12:48:27;;;;;;;5.93;2.23;;;;;;;;;;10126438;28;20087;-65
2023/04/10 12:53:22;;;;;;;3.35;2.60;;;;;;;;;;10134911;28;20076;-66
2023/04/10 12:58:16;;;;;;;2.58;2.35;;;;;;;;;;10140912;28;20044;-71
2023/04/10 13:03:10;;;;;;;5.28;3.95;;;;;;;;;;10142647;28;20555;-66
2023/04/10 13:08:03;;;;;;;3.00;2.70;;;;;;;;;;10141566;28;20040;-65
2023/04/10 13:12:57;;;;;;;7.55;2.72;;;;;;;;;;10140774;28;20056;-65
2023/04/10 13:17:51;;;;;;;3.50;2.30;;;;;;;;;;10141255;28;20106;-65
2023/04/10 13:22:45;;;;;;;3.65;2.30;;;;;;;;;;10141493;28;20063;-66
2023/04/10 13:27:39;;;;;;;2.70;2.42;;;;;;;;;;10140222;28;20064;-66
2023/04/10 13:32:32;;;;;;;2.95;2.20;;;;;;;;;;10137883;28;20779;-66
2023/04/10 13:37:26;;;;;;;4.30;2.78;;;;;;;;;;10137059;28;20052;-66
2023/04/10 13:42:19;;;;;;;3.00;2.70;;;;;;;;;;10136735;28;20044;-65
2023/04/10 13:47:12;;;;;;;3.22;2.40;;;;;;;;;;10141025;28;20147;-65
2023/04/10 13:52:05;;;;;;;7.57;2.85;;;;;;;;;;10139493;28;20048;-68
2023/04/10 13:56:58;;;;;;;3.05;2.35;;;;;;;;;;10139897;28;20048;-67
2023/04/10 14:01:54;;;;;;;5.18;2.65;;;;;;;;;;10140147;28;20522;-68
2023/04/10 14:06:49;;;;;;;2.67;2.47;;;;;;;;;;10140492;28;20052;-68
2023/04/10 14:11:43;;;;;;;2.72;2.53;;;;;;;;;;10140083;28;20055;-66
2023/04/10 14:16:37;;;;;;;3.17;2.47;;;;;;;;;;10137794;28;20044;-66
2023/04/10 14:21:31;;;;;;;2.75;2.55;;;;;;;;;;10138961;28;20071;-66
2023/04/10 14:26:24;;;;;;;2.63;2.40;;;;;;;;;;10140548;28;20079;-66
2023/04/10 14:31:18;;;;;;;4.43;2.97;;;;;;;;;;10139587;28;20068;-66
2023/04/10 14:36:11;;;;;;;16.20;4.85;;;;;;;;;;10139564;28;20060;-66
2023/04/10 14:41:05;;;;;;;2.20;2.00;;;;;;;;;;10140775;28;20070;-66
2023/04/10 14:45:58;;;;;;;2.85;2.38;;;;;;;;;;10141530;28;20083;-66
2023/04/10 14:50:53;;;;;;;2.75;2.50;;;;;;;;;;10132982;28;20179;-66
2023/04/10 14:55:47;;;;;;;3.28;2.08;;;;;;;;;;10132697;28;20079;-66
2023/04/10 15:00:42;;;;;;;2.60;2.40;;;;;;;;;;10132562;28;20063;-65
2023/04/10 15:05:36;;;;;;;2.33;2.10;;;;;;;;;;10129218;28;20135;-66
2023/04/10 15:10:30;;;;;;;2.78;2.03;;;;;;;;;;10132851;28;20513;-66
2023/04/10 15:15:26;;;;;;;2.55;2.20;;;;;;;;;;10131583;28;20051;-65
2023/04/10 15:20:22;;;;;;;;;;;;;;;;;;10135370;28;20045;-66
2023/04/10 15:25:15;;;;;;;2.00;1.85;;;;;;;;;;10143642;28;20495;-68
2023/04/10 15:30:09;;;;;;;3.92;1.90;;;;;;;;;;10144558;28;20044;-66
2023/04/10 15:35:04;;;;;;;1.90;1.80;;;;;;;;;;10120672;28;20048;-65
2023/04/10 15:39:58;;;;;;;2.80;2.28;;;;;;;;;;10134652;28;20132;-68
2023/04/10 15:44:51;;;;;;;3.75;2.00;;;;;;;;;;10130461;28;20047;-66
2023/04/10 15:49:45;;;;;;;3.35;2.17;;;;;;;;;;10131493;28;20067;-65
2023/04/10 15:54:39;;;;;;;2.20;1.88;;;;;;;;;;10134632;28;20419;-66
2023/04/10 15:59:32;;;;;;;2.95;2.25;;;;;;;;;;10140238;28;20039;-66
2023/04/10 16:04:27;;;;;;;2.42;2.22;;;;;;;;;;10143394;28;20049;-65
2023/04/10 16:09:21;;;;;;;1.98;1.75;;;;;;;;;;10140814;28;20053;-65
2023/04/10 16:14:17;;;;;;;2.10;1.90;;;;;;;;;;10143786;28;20040;-65
2023/04/10 16:19:11;;;;;;;2.13;1.90;;;;;;;;;;10141076;28;20055;-65
2023/04/10 16:24:05;;;;;;;4.13;1.90;;;;;;;;;;10143425;28;20132;-68
2023/04/10 16:28:58;;;;;;;3.10;2.28;;;;;;;;;;10141024;28;20052;-66
2023/04/10 16:33:52;;;;;;;3.55;2.17;;;;;;;;;;10136045;28;20119;-63
2023/04/10 16:38:48;;;;;;;4.10;2.85;;;;;;;;;;10139853;28;20045;-68
2023/04/10 16:43:42;;;;;;;3.22;2.33;;;;;;;;;;10132279;28;20056;-64
2023/04/10 16:48:37;;;;;;;2.80;2.60;;;;;;;;;;10133080;28;20063;-65
2023/04/10 16:53:32;;;;;;;2.90;2.63;;;;;;;;;;10129060;28;20565;-64
2023/04/10 16:58:25;;;;;;;2.92;2.60;;;;;;;;;;10133830;28;20044;-67
2023/04/10 17:03:18;;;;;;;4.43;2.28;;;;;;;;;;10137678;28;20095;-67
2023/04/10 17:08:12;;;;;;;2.22;1.92;;;;;;;;;;10128042;28;20041;-64
2023/04/10 17:13:05;;;;;;;3.17;2.40;;;;;;;;;;10130200;28;20050;-65
2023/04/10 17:17:58;;;;;;;5.38;2.65;;;;;;;;;;10118420;28;20044;-67
2023/04/10 17:22:52;;;;;;;6.30;2.75;;;;;;;;;;10125295;28;20057;-67
2023/04/10 17:27:46;;;;;;;4.15;2.42;;;;;;;;;;10117891;28;20048;-67
2023/04/10 17:32:40;;;;;;;7.75;2.55;;;;;;;;;;10114861;28;20049;-66
2023/04/10 17:37:34;;;;;;;4.93;2.63;;;;;;;;;;10128444;28;20047;-67
2023/04/10 17:42:28;;;;;;;5.32;3.05;;;;;;;;;;10130321;28;20056;-65
2023/04/10 17:47:21;;;;;;;3.55;3.22;;;;;;;;;;10118145;28;20053;-65
2023/04/10 17:52:14;;;;;;;4.80;3.88;;;;;;;;;;10144888;28;20044;-63
2023/04/10 17:57:08;;;;;;;4.15;3.75;;;;;;;;;;10144502;28;20071;-63
2023/04/10 18:02:01;;;;;;;8.85;6.82;;;;;;;;;;10143982;28;20048;-63
2023/04/10 18:06:56;;;;;;;5.93;4.88;;;;;;;;;;10152767;28;20052;-67
2023/04/10 18:11:49;;;;;;;9.50;8.45;;;;;;;;;;10146358;28;20455;-62
2023/04/10 18:16:42;;;;;;;9.68;7.20;;;;;;;;;;10145546;28;20045;-71
2023/04/10 18:21:36;;;;;;;8.35;6.55;;;;;;;;;;10145628;28;20173;-68
2023/04/10 18:26:32;;;;;;;12.25;10.95;;;;;;;;;;10141910;28;20074;-65
2023/04/10 18:31:25;;;;;;;6.50;5.57;;;;;;;;;;10142087;28;20068;-65
2023/04/10 18:36:20;;;;;;;9.15;7.63;;;;;;;;;;10143448;28;20063;-65
2023/04/10 18:41:13;;;;;;;9.77;5.68;;;;;;;;;;10148792;28;20382;-65
2023/04/10 18:46:06;;;;;;;6.80;4.60;;;;;;;;;;10143578;28;20055;-65
2023/04/10 18:50:59;;;;;;;6.60;6.00;;;;;;;;;;10149982;28;20056;-64
2023/04/10 18:55:53;;;;;;;6.72;5.97;;;;;;;;;;10149065;28;20428;-64
2023/04/10 19:00:46;;;;;;;7.75;5.28;;;;;;;;;;10143390;28;20138;-64
2023/04/10 19:05:40;;;;;;;8.57;5.82;;;;;;;;;;10145657;28;20067;-64
2023/04/10 19:10:36;;;;;;;6.50;5.38;;;;;;;;;;10149550;28;20044;-65
2023/04/10 19:15:30;;;;;;;5.68;4.60;;;;;;;;;;10141311;28;20417;-65
2023/04/10 19:20:24;;;;;;;6.97;4.70;;;;;;;;;;10128313;28;20084;-65
2023/04/10 19:25:37;;;;;;;6.10;4.60;;;;;;;;;;10136341;28;20058;-64
2023/04/10 19:30:29;;;;;;;9.00;5.60;;;;;;;;;;10130039;28;20505;-63
2023/04/10 19:35:22;;;;;;;6.95;5.95;;;;;;;;;;10132095;28;20045;-64
2023/04/10 19:40:18;;;;;;;5.88;5.32;;;;;;;;;;10127877;28;20470;-66
2023/04/10 19:45:12;;;;;;;7.95;6.85;;;;;;;;;;10131136;28;20051;-66
2023/04/10 19:50:06;;;;;;;7.90;7.10;;;;;;;;;;10144162;28;20464;-66
2023/04/10 19:55:00;;;;;;;7.28;6.22;;;;;;;;;;10138835;28;20048;-63
2023/04/10 19:59:53;;;;;;;12.60;6.22;;;;;;;;;;10136177;28;20053;-66
2023/04/10 20:04:47;;;;;;;6.82;5.63;;;;;;;;;;10132106;28;20498;-64
2023/04/10 20:09:41;;;;;;;9.10;6.35;;;;;;;;;;10133237;28;20057;-64
2023/04/10 20:14:34;;;;;;;8.05;5.55;;;;;;;;;;10136177;28;20072;-64
2023/04/10 20:19:26;;;;;;;6.78;5.03;;;;;;;;;;10136917;28;20057;-63
2023/04/10 20:24:20;;;;;;;6.90;5.85;;;;;;;;;;10131791;28;20068;-64
2023/04/10 20:29:14;;;;;;;6.72;5.70;;;;;;;;;;10137007;28;20055;-66
2023/04/10 20:34:08;;;;;;;7.82;6.22;;;;;;;;;;10126573;28;20131;-63
2023/04/10 20:39:00;;;;;;;6.95;5.70;;;;;;;;;;10122656;28;20102;-64
2023/04/10 20:43:56;;;;;;;13.27;6.72;;;;;;;;;;10124103;28;20051;-64
2023/04/10 20:48:50;;;;;;;8.35;5.43;;;;;;;;;;10121071;28;20155;-64
2023/04/10 20:53:43;;;;;;;5.55;5.03;;;;;;;;;;10115748;28;20489;-65
2023/04/10 20:58:37;;;;;;;4.03;3.63;;;;;;;;;;10119667;28;20056;-64
2023/04/10 21:03:33;;;;;;;5.00;4.00;;;;;;;;;;10115883;28;20409;-65
2023/04/10 21:08:27;;;;;;;5.50;4.50;;;;;;;;;;10129115;28;20053;-66
2023/04/10 21:13:20;;;;;;;7.72;5.00;;;;;;;;;;10135090;28;20463;-66
2023/04/10 21:18:14;;;;;;;8.25;5.00;;;;;;;;;;10127379;28;20051;-65
2023/04/10 21:23:08;;;;;;;7.13;5.40;;;;;;;;;;10128228;28;20580;-65
2023/04/10 21:28:01;;;;;;;6.93;5.80;;;;;;;;;;10134580;28;20045;-64
2023/04/10 21:32:55;;;;;;;6.60;4.63;;;;;;;;;;10139872;28;20500;-63
2023/04/10 21:37:55;;;;;;;9.07;7.93;;;;;;;;;;10127903;28;20053;-65
2023/04/10 21:42:48;;;;;;;5.97;4.95;;;;;;;;;;10129941;28;20083;-64
2023/04/10 21:47:42;;;;;;;6.95;6.30;;;;;;;;;;10140395;28;20056;-66
2023/04/10 21:52:35;;;;;;;6.15;5.57;;;;;;;;;;10136058;28;20075;-63
2023/04/10 21:57:29;;;;;;;7.28;6.55;;;;;;;;;;10138256;28;20056;-65
2023/04/10 22:02:22;;;;;;;6.80;6.10;;;;;;;;;;10133969;28;20048;-65
2023/04/10 22:07:15;;;;;;;6.57;5.32;;;;;;;;;;10133084;28;20068;-65
2023/04/10 22:12:09;;;;;;;6.10;5.22;;;;;;;;;;10137996;28;20052;-64
2023/04/10 22:17:01;;;;;;;9.32;4.82;;;;;;;;;;10127517;28;20382;-65
2023/04/10 22:21:55;;;;;;;5.72;4.13;;;;;;;;;;10131632;28;20045;-64
2023/04/10 22:26:49;;;;;;;4.80;4.25;;;;;;;;;;10132185;28;20052;-65
2023/04/10 22:31:43;;;;;;;6.95;4.75;;;;;;;;;;10131194;28;20157;-64
2023/04/10 22:36:36;;;;;;;5.13;4.10;;;;;;;;;;10133789;28;20524;-64
2023/04/10 22:41:30;;;;;;;5.50;4.53;;;;;;;;;;10132394;28;20053;-62
2023/04/10 22:46:25;;;;;;;4.65;3.92;;;;;;;;;;10133929;28;20072;-65
2023/04/10 22:51:19;;;;;;;6.28;4.00;;;;;;;;;;10130613;28;20049;-63
2023/04/10 22:56:12;;;;;;;5.00;4.18;;;;;;;;;;10137145;28;20037;-64
2023/04/10 23:01:08;;;;;;;5.03;3.53;;;;;;;;;;10143397;28;20041;-65
2023/04/10 23:06:02;;;;;;;5.18;4.18;;;;;;;;;;10144625;28;20110;-62
2023/04/10 23:10:55;;;;;;;5.03;4.50;;;;;;;;;;10144195;28;20040;-63
2023/04/10 23:15:49;;;;;;;6.28;4.00;;;;;;;;;;10145472;28;20115;-63
2023/04/10 23:20:41;;;;;;;6.50;4.80;;;;;;;;;;10151094;28;20041;-66
2023/04/10 23:25:35;;;;;;;5.28;3.92;;;;;;;;;;10152083;28;20132;-63
2023/04/10 23:30:29;;;;;;;5.82;4.10;;;;;;;;;;10151453;28;20056;-63
2023/04/10 23:35:22;;;;;;;5.72;3.58;;;;;;;;;;10151185;28;20060;-63
2023/04/10 23:40:16;;;;;;;4.63;4.10;;;;;;;;;;10151072;28;20110;-63
2023/04/10 23:45:11;;;;;;;4.93;3.78;;;;;;;;;;10151237;28;20123;-65
2023/04/10 23:50:07;;;;;;;3.63;3.28;;;;;;;;;;10151247;28;20044;-62
2023/04/10 23:55:00;;;;;;;3.42;3.13;;;;;;;;;;10150508;28;20070;-62
2023/04/10 23:59:53;;;;;;;3.00;2.70;;;;;;;;;;10150342;28;20125;-63
